OIBS  Sirri Island Airport

Add Bookmark

Iran

Status IATA
Operational SXI
Latitude Longitude
25° 54' 32" N 54° 32' 21" E
25.908899 54.539398
Local (DST + 5) UTC (GMT + 4)
Oct 31, 2014 11:21 Oct 31, 2014 19:51
Sunrise-Sunset Local UTC
Begin Civil Twilight 05:35 02:05
Sunrise 05:58 02:28
Sunset 05:12 13:42
End Civil Twilight 05:35 14:05

Current Weather

METAR Observed VFR
OIBS 311500Z 07014KT CAVOK 30/20 Q1011 Fri, Oct 31, 2014 @ 15:00 UTC
(4 Hours, 51 Minutes ago)
Visual Flight Rules
Wind Visibility Clouds Conditions
070° at 14 knots (26 kph) 10 km or more
  • Clear skies
  • No significant weather
Temperatures Readings Precipitation
Current Temp 30°C (86°F)
Dewpoint 20°C (68°F)
Heat Index 32°C (89°F)
Humidity 55%
Altimeter 29.85"Hg
Sea Level Pressure 1011mb
Field Elevation 45.93'
None Recorded

Additional weather within a 92.6km radius of OIBS

Map ICAO Location
OIBA 49.4km E (094°)
OIBL 74.8km N (022°)
OIBK 88.3km N (321°)

24 Hour Weather History

Loading
-

24 Hour Weather Graphs

Loading
-

CheckWX.com is intended as a tool to help pilots better visualize weather data. It is not intended as a substitute for an official weather briefing obtained from a Flight Service Station. CheckWX.com does not meet the FAA requirements for an official pre-flight weather briefing. Therefore, it's important that pilots still call and obtain an official FSS pre-flight weather briefing.